sensor_id;sensor_type;location;lat;lon;timestamp;pressure;altitude;pressure_sealevel;temperature;humidity
50650;BME280;36621;60.058;30.346;2022-12-10T05:03:37;100964.09;;;0.02;63.05
50650;BME280;36621;60.058;30.346;2022-12-10T05:29:57;101000.28;;;0.13;63.04
50650;BME280;36621;60.058;30.346;2022-12-10T05:37:48;100982.81;;;-0.11;62.90
50650;BME280;36621;60.058;30.346;2022-12-10T05:54:49;101018.81;;;0.01;63.23
50650;BME280;36621;60.058;30.346;2022-12-10T06:02:22;101066.78;;;0.11;63.25
50650;BME280;36621;60.058;30.346;2022-12-10T06:10:04;101067.81;;;0.10;63.46
50650;BME280;36621;60.058;30.346;2022-12-10T06:17:36;101088.81;;;0.28;63.30
50650;BME280;36621;60.058;30.346;2022-12-10T06:25:09;101102.28;;;0.34;63.37
50650;BME280;36621;60.058;30.346;2022-12-10T06:32:42;101113.09;;;0.41;64.00
50650;BME280;36621;60.058;30.346;2022-12-10T06:40:16;101088.38;;;0.24;62.88
50650;BME280;36621;60.058;30.346;2022-12-10T06:47:48;101121.47;;;0.31;63.58
50650;BME280;36621;60.058;30.346;2022-12-10T06:55:21;101068.78;;;0.02;63.31
50650;BME280;36621;60.058;30.346;2022-12-10T07:02:53;101128.00;;;0.50;63.00
50650;BME280;36621;60.058;30.346;2022-12-10T07:10:27;100959.94;;;-0.57;62.63
50650;BME280;36621;60.058;30.346;2022-12-10T07:17:59;101151.38;;;0.50;62.65
50650;BME280;36621;60.058;30.346;2022-12-10T07:25:33;101014.56;;;-0.43;62.85
50650;BME280;36621;60.058;30.346;2022-12-10T07:33:05;101141.50;;;0.29;63.42
50650;BME280;36621;60.058;30.346;2022-12-10T07:40:39;101164.03;;;-0.15;64.27
50650;BME280;36621;60.058;30.346;2022-12-10T07:48:11;100979.44;;;-1.43;64.02
50650;BME280;36621;60.058;30.346;2022-12-10T07:55:46;101175.78;;;0.05;63.97
50650;BME280;36621;60.058;30.346;2022-12-10T08:03:19;101181.56;;;0.02;63.69
50650;BME280;36621;60.058;30.346;2022-12-10T08:10:52;101169.16;;;0.01;62.97
50650;BME280;36621;60.058;30.346;2022-12-10T08:18:25;101152.44;;;0.06;62.92
50650;BME280;36621;60.058;30.346;2022-12-10T08:26:02;101186.13;;;0.30;62.33
50650;BME280;36621;60.058;30.346;2022-12-10T08:33:35;101148.06;;;-0.02;62.46
50650;BME280;36621;60.058;30.346;2022-12-10T08:41:11;101179.53;;;-0.32;62.88
50650;BME280;36621;60.058;30.346;2022-12-10T08:48:43;101088.16;;;-1.19;63.32
50650;BME280;36621;60.058;30.346;2022-12-10T08:56:17;101204.75;;;-0.48;63.02
50650;BME280;36621;60.058;30.346;2022-12-10T09:03:49;101222.31;;;-0.46;63.01
50650;BME280;36621;60.058;30.346;2022-12-10T09:11:25;101093.50;;;-1.49;64.35
50650;BME280;36621;60.058;30.346;2022-12-10T09:19:06;101218.34;;;-0.50;63.95
50650;BME280;36621;60.058;30.346;2022-12-10T09:26:40;101218.16;;;-0.48;63.55
50650;BME280;36621;60.058;30.346;2022-12-10T09:34:29;101139.03;;;-0.74;62.87
50650;BME280;36621;60.058;30.346;2022-12-10T09:42:26;101219.72;;;-0.03;62.58
50650;BME280;36621;60.058;30.346;2022-12-10T09:50:14;101198.44;;;-0.04;61.99
50650;BME280;36621;60.058;30.346;2022-12-10T09:58:05;100980.69;;;-1.76;62.13
50650;BME280;36621;60.058;30.346;2022-12-10T10:05:56;101226.13;;;-0.70;63.52
50650;BME280;36621;60.058;30.346;2022-12-10T10:31:21;101200.72;;;-0.89;63.22
50650;BME280;36621;60.058;30.346;2022-12-10T10:39:09;101137.03;;;-1.47;63.34
50650;BME280;36621;60.058;30.346;2022-12-10T10:46:50;101224.44;;;-1.16;63.64
50650;BME280;36621;60.058;30.346;2022-12-10T10:54:34;101204.50;;;-1.13;63.45
50650;BME280;36621;60.058;30.346;2022-12-10T12:39:27;101042.28;;;-2.75;63.52
50650;BME280;36621;60.058;30.346;2022-12-10T12:48:09;101285.47;;;-1.03;63.95
50650;BME280;36621;60.058;30.346;2022-12-10T14:21:45;101281.13;;;-1.88;65.65
50650;BME280;36621;60.058;30.346;2022-12-10T14:29:21;101309.22;;;-1.84;65.55
50650;BME280;36621;60.058;30.346;2022-12-10T14:37:09;101342.66;;;-1.80;65.85
50650;BME280;36621;60.058;30.346;2022-12-10T14:45:03;101225.56;;;-2.81;66.64
50650;BME280;36621;60.058;30.346;2022-12-10T14:52:52;101321.22;;;-2.12;66.31
50650;BME280;36621;60.058;30.346;2022-12-10T15:00:58;101262.69;;;-2.46;66.18
50650;BME280;36621;60.058;30.346;2022-12-10T15:09:38;101347.16;;;-2.12;66.51
50650;BME280;36621;60.058;30.346;2022-12-10T16:40:38;101246.88;;;-2.24;64.43
50650;BME280;36621;60.058;30.346;2022-12-10T17:25:40;101343.41;;;-1.40;63.51
50650;BME280;36621;60.058;30.346;2022-12-10T17:43:13;101153.09;;;-2.54;62.80
50650;BME280;36621;60.058;30.346;2022-12-10T17:50:58;101321.63;;;-1.92;63.51
50650;BME280;36621;60.058;30.346;2022-12-10T18:16:33;101136.72;;;-3.30;63.95
50650;BME280;36621;60.058;30.346;2022-12-10T18:41:00;101298.09;;;-2.04;63.42
50650;BME280;36621;60.058;30.346;2022-12-10T18:48:35;101371.34;;;-1.66;63.14
50650;BME280;36621;60.058;30.346;2022-12-10T18:56:16;101367.03;;;-1.44;62.64
50650;BME280;36621;60.058;30.346;2022-12-10T19:03:50;101261.94;;;-2.23;62.63
50650;BME280;36621;60.058;30.346;2022-12-10T19:11:27;101344.88;;;-1.61;62.84
50650;BME280;36621;60.058;30.346;2022-12-10T19:19:02;101359.56;;;-1.57;61.97
50650;BME280;36621;60.058;30.346;2022-12-10T19:26:39;101361.59;;;-1.59;62.01
